Macy, NE (68039)

2:07 PM CST on February 13, 2016 (GMT -0600)
Prairie Oaks Lane | | Change Station
CLOSE
Current Station
Personal Weather Station
Location: West Point, NE
Elevation: 1388 ft
Nearby Weather Stations

Elev 1388 ft 41.91 °N, 96.64 °W | Updated 14 seconds ago

Overcast
Overcast
14.0 °F
Feels Like 2 °F
N
9.2
Wind Variable Wind from SE
Gusts 12.3 mph

Today
High -- | Low -- °F
--% Chance of Precip.
Yesterday
High -- | Low -- °F
Precip. -- in
Pressure 30.35 in
Visibility 10.0 miles
Clouds Mostly Cloudy 3100 ft
Overcast 3700 ft
Windchill 2 °F
Dew Point -0 °F
Humidity 52%
Rainfall 0.00 in
Snow Depth Not available.
7:25 AM 5:56 PM
Waxing Crescent, 33% visible
METAR KLCG 131955Z AUTO 15015KT 10SM BKN031 OVC037 M10/M15 A3035 RMK AO2 T11001149
Pressure 30.35 in
Visibility 10.0 miles
Clouds Mostly Cloudy 3100 ft
Overcast 3700 ft
Windchill 2 °F
Dew Point -0 °F
Humidity 52%
Rainfall 0.00 in
Snow Depth Not available.
7:25 AM 5:56 PM
Waxing Crescent, 33% visible
METAR KLCG 131955Z AUTO 15015KT 10SM BKN031 OVC037 M10/M15 A3035 RMK AO2 T11001149

10-Day Weather Forecast

Almanac

Astronomy

Feb. 13, 2016 Rise Set
Actual Time
Civil Twilight
Nautical Twilight
Astronomical Twilight
Moon
Length of Visible Light
Length of Day
Tomorrow will be .
, % of the Moon is Illuminated

Today's Extremes

State Highs State Lows

Community

WunderPhotos

Upload Photos

1,892,653 photos uploaded!

WunderBlog® & News

Nearby

Air Quality

  Air Quality AQ Index Pollutant
Not available.

Snow Depth

Station Depth Elevation

Earthquake Activity

City Distance Mag. Time & Date
Minimum magnitude displayed is 2.5.

Coastal Water Temperatures

Place Temperature

Stations

Nearby Weather Stations

Station Location Temp. Windchill Dew Point Humidity Wind Precip. Elev Updated Type
                   

Watches & Warnings

There are currently no watches in effect.